createdAt,value
2019-04-10T00:02:50.138Z,100021.56
2019-04-10T00:05:54.180Z,100019.83
2019-04-10T00:08:58.820Z,100024.13
2019-04-10T00:12:02.426Z,100022.40
2019-04-10T00:15:07.244Z,100027.13
2019-04-10T00:18:10.810Z,100028.43
2019-04-10T00:21:15.457Z,100031.86
2019-04-10T00:24:19.773Z,100022.34
2019-04-10T00:27:23.520Z,100027.53
2019-04-10T00:30:27.220Z,100024.94
2019-04-10T00:33:30.847Z,100021.44
2019-04-10T00:36:35.226Z,100023.17
2019-04-10T00:39:39.136Z,100018.41
2019-04-10T00:42:43.286Z,100021.43
2019-04-10T00:45:47.102Z,100020.96
2019-04-10T00:48:50.704Z,100019.66
2019-04-10T00:51:55.376Z,100020.96
2019-04-10T00:54:59.610Z,100019.66
2019-04-10T00:58:03.664Z,100013.59
2019-04-10T01:01:07.831Z,100017.05
2019-04-10T01:04:12.383Z,100012.69
2019-04-10T01:07:16.871Z,100011.81
2019-04-10T01:10:22.012Z,100016.15
2019-04-10T01:13:25.688Z,100011.38
2019-04-10T01:16:29.452Z,100015.28
2019-04-10T01:19:34.220Z,100008.78
2019-04-10T01:22:39.047Z,100010.51
2019-04-10T01:25:42.995Z,100015.27
2019-04-10T01:28:47.114Z,100015.67
2019-04-10T01:31:51.233Z,100016.97
2019-04-10T01:34:55.928Z,100011.33
2019-04-10T01:38:01.457Z,100016.53
2019-04-10T01:41:05.766Z,100014.79
2019-04-10T01:44:09.448Z,100018.69
2019-04-10T01:47:13.239Z,100017.38
2019-04-10T01:50:17.942Z,100016.52
2019-04-10T01:53:21.852Z,100016.48
2019-04-10T01:56:31.683Z,100017.78
2019-04-10T01:59:32.177Z,100030.34
2019-04-10T02:02:39.924Z,100027.73
2019-04-10T02:05:43.597Z,100027.30
2019-04-10T02:08:47.838Z,100026.42
2019-04-10T02:11:52.364Z,100024.26
2019-04-10T02:14:56.580Z,100026.86
2019-04-10T02:18:01.278Z,100021.66
2019-04-10T02:21:04.331Z,100025.56
2019-04-10T02:24:09.028Z,100026.42
2019-04-10T02:27:12.851Z,100023.83
2019-04-10T02:30:19.150Z,100032.92
2019-04-10T02:33:23.247Z,100027.28
2019-04-10T02:36:29.231Z,100025.09
2019-04-10T02:39:38.170Z,100027.25
2019-04-10T02:42:38.728Z,100027.23
2019-04-10T02:45:42.508Z,100030.70
2019-04-10T02:48:47.734Z,100033.30
2019-04-10T02:51:51.949Z,100031.58
2019-04-10T02:54:55.598Z,100035.47
2019-04-10T02:58:00.840Z,100034.60
2019-04-10T03:01:05.004Z,100038.94
2019-04-10T03:04:09.766Z,100032.42
2019-04-10T03:07:15.664Z,100036.33
2019-04-10T03:10:26.558Z,100039.80
2019-04-10T03:13:26.888Z,100044.52
2019-04-10T03:16:31.221Z,100045.81
2019-04-10T03:19:35.862Z,100042.77
2019-04-10T03:22:40.899Z,100044.08
2019-04-10T03:25:45.481Z,100043.63
2019-04-10T03:28:49.429Z,100047.53
2019-04-10T03:31:56.496Z,100039.31
2019-04-10T03:35:03.093Z,100046.24
2019-04-10T03:38:07.866Z,100040.17
2019-04-10T03:41:10.865Z,100037.57
2019-04-10T03:44:14.633Z,100037.57
2019-04-10T03:47:18.266Z,100036.70
2019-04-10T03:50:22.002Z,100039.30
2019-04-10T03:53:26.417Z,100039.31
2019-04-10T03:56:30.302Z,100041.05
2019-04-10T03:59:33.870Z,100042.78
2019-04-10T04:02:38.061Z,100041.48
2019-04-10T04:05:42.563Z,100048.42
2019-04-10T04:08:46.308Z,100034.16
2019-04-10T04:11:50.329Z,100050.59
2019-04-10T04:14:54.935Z,100046.30
2019-04-10T04:17:58.642Z,100045.39
2019-04-10T04:21:03.415Z,100048.89
2019-04-10T04:24:07.314Z,100047.59
2019-04-10T04:27:11.167Z,100053.19
2019-04-10T04:30:14.824Z,100060.59
2019-04-10T04:33:19.019Z,100066.20
2019-04-10T04:36:22.922Z,100064.46
2019-04-10T04:39:28.423Z,100062.73
2019-04-10T04:42:32.988Z,100066.20
2019-04-10T04:45:36.057Z,100062.30
2019-04-10T04:48:39.724Z,100059.69
2019-04-10T04:51:43.783Z,100061.86
2019-04-10T04:54:47.773Z,100067.49
2019-04-10T04:57:51.425Z,100077.02
2019-04-10T05:00:55.056Z,100070.95
2019-04-10T05:03:58.712Z,100067.91
2019-04-10T05:07:02.384Z,100078.31
2019-04-10T05:10:07.578Z,100078.27
2019-04-10T05:13:11.248Z,100076.96
2019-04-10T05:16:15.083Z,100076.52
2019-04-10T05:19:19.045Z,100078.68
2019-04-10T05:22:22.734Z,100080.81
2019-04-10T05:25:27.311Z,100082.10
2019-04-10T05:28:31.135Z,100084.70
2019-04-10T05:31:34.722Z,100085.55
2019-04-10T05:34:38.522Z,100079.00
2019-04-10T05:37:43.479Z,100085.07
2019-04-10T05:40:48.468Z,100080.30
2019-04-10T05:43:53.003Z,100085.06
2019-04-10T05:46:56.954Z,100080.30
2019-04-10T05:50:00.638Z,100074.65
2019-04-10T05:53:04.431Z,100075.52
2019-04-10T05:56:08.116Z,100076.38
2019-04-10T05:59:13.174Z,100078.94
2019-04-10T06:02:17.861Z,100079.78
2019-04-10T06:05:22.355Z,100083.25
2019-04-10T06:08:26.372Z,100080.63
2019-04-10T06:11:30.995Z,100076.23
2019-04-10T06:14:34.537Z,100076.23
2019-04-10T06:17:38.639Z,100087.06
2019-04-10T06:20:42.561Z,100091.39
2019-04-10T06:23:47.590Z,100090.48
2019-04-10T06:26:52.048Z,100096.03
2019-04-10T06:29:57.807Z,100088.13
2019-04-10T06:33:02.199Z,100090.19
2019-04-10T06:36:06.051Z,100087.94
2019-04-10T06:39:10.798Z,100086.14
2019-04-10T06:42:14.250Z,100087.82
2019-04-10T06:45:18.344Z,100089.11
2019-04-10T06:48:22.034Z,100088.75
2019-04-10T06:51:25.854Z,100099.19
2019-04-10T06:54:29.525Z,100100.92
2019-04-10T06:57:45.069Z,100098.74
2019-04-10T07:00:39.155Z,100103.53
2019-04-10T07:03:52.660Z,100105.70
2019-04-10T07:06:57.979Z,100098.74
2019-04-10T07:09:55.143Z,100105.08
2019-04-10T07:12:59.681Z,100105.34
2019-04-10T07:16:04.203Z,100106.34
2019-04-10T07:19:10.375Z,100105.84
2019-04-10T07:22:15.548Z,100092.23
2019-04-10T07:25:19.659Z,100094.22
2019-04-10T07:28:23.812Z,100096.41
2019-04-10T07:31:30.335Z,100094.28
2019-04-10T07:34:34.134Z,100090.55
2019-04-10T07:37:38.310Z,100090.02
2019-04-10T07:40:42.906Z,100088.16
2019-04-10T07:43:52.430Z,100092.25
2019-04-10T07:46:52.971Z,100096.79
2019-04-10T07:49:59.449Z,100093.17
2019-04-10T07:53:02.170Z,100095.25
2019-04-10T07:56:10.506Z,100097.03
2019-04-10T07:59:11.569Z,100094.28
2019-04-10T08:02:16.358Z,100099.74
2019-04-10T08:05:20.965Z,100105.58
2019-04-10T08:08:25.652Z,100106.56
2019-04-10T08:11:29.691Z,100103.73
2019-04-10T08:14:33.316Z,100107.98
2019-04-10T08:17:37.074Z,100101.73
2019-04-10T08:20:40.862Z,100114.05
2019-04-10T08:23:44.683Z,100113.14
2019-04-10T08:26:49.278Z,100105.83
2019-04-10T08:29:52.978Z,100106.09
2019-04-10T08:33:01.035Z,100108.37
2019-04-10T08:36:03.229Z,100109.53
2019-04-10T08:39:07.819Z,100117.51
2019-04-10T08:42:12.696Z,100120.11
2019-04-10T08:45:16.819Z,100117.07
2019-04-10T08:48:20.595Z,100119.70
2019-04-10T08:51:25.518Z,100118.81
2019-04-10T08:54:28.979Z,100121.77
2019-04-10T08:57:34.099Z,100118.56
2019-04-10T09:00:38.266Z,100113.95
2019-04-10T09:03:41.911Z,100115.31
2019-04-10T09:06:45.929Z,100118.32
2019-04-10T09:09:49.958Z,100123.17
2019-04-10T09:12:54.564Z,100124.51
2019-04-10T09:16:00.409Z,100118.41
2019-04-10T09:19:04.474Z,100124.19
2019-04-10T09:22:08.641Z,100124.95
2019-04-10T09:25:13.171Z,100131.20
2019-04-10T09:28:18.161Z,100121.02
2019-04-10T09:31:22.140Z,100129.15
2019-04-10T09:34:25.938Z,100127.64
2019-04-10T09:37:31.053Z,100131.34
2019-04-10T09:40:36.186Z,100129.63
2019-04-10T09:43:40.156Z,100129.36
2019-04-10T09:46:45.046Z,100121.55
2019-04-10T09:49:49.300Z,100134.00
2019-04-10T09:52:53.098Z,100130.36
2019-04-10T09:55:56.898Z,100138.73
2019-04-10T09:59:00.866Z,100130.36
2019-04-10T10:02:04.871Z,100128.17
2019-04-10T10:05:08.579Z,100110.44
2019-04-10T10:08:12.716Z,100134.88
2019-04-10T10:11:16.576Z,100124.03
2019-04-10T10:14:21.011Z,100121.92
2019-04-10T10:17:24.928Z,100125.88
2019-04-10T10:20:29.660Z,100133.30
2019-04-10T10:23:33.988Z,100134.12
2019-04-10T10:26:37.710Z,100144.36
2019-04-10T10:29:41.941Z,100131.44
2019-04-10T10:32:45.714Z,100134.95
2019-04-10T10:35:49.616Z,100135.73
2019-04-10T10:39:05.011Z,100134.81
2019-04-10T10:41:58.912Z,100138.73
2019-04-10T10:45:02.938Z,100137.28
2019-04-10T10:48:08.626Z,100142.24
2019-04-10T10:51:12.867Z,100138.79
2019-04-10T10:54:16.916Z,100141.03
2019-04-10T10:57:20.550Z,100139.93
2019-04-10T11:00:25.219Z,100137.48
2019-04-10T11:03:30.690Z,100139.22
2019-04-10T11:06:36.337Z,100138.11
2019-04-10T11:09:42.128Z,100133.07
2019-04-10T11:12:48.779Z,100134.42
2019-04-10T11:15:53.314Z,100133.58
2019-04-10T11:19:00.507Z,100142.39
2019-04-10T11:22:05.187Z,100144.44
2019-04-10T11:25:09.116Z,100142.14
2019-04-10T11:28:14.018Z,100152.06
2019-04-10T11:31:17.427Z,100152.45
2019-04-10T11:34:22.610Z,100153.14
2019-04-10T11:37:35.910Z,100144.88
2019-04-10T11:40:34.309Z,100144.03
2019-04-10T11:43:38.430Z,100142.73
2019-04-10T11:46:42.295Z,100142.67
2019-04-10T11:49:47.241Z,100142.94
2019-04-10T11:52:53.345Z,100146.65
2019-04-10T11:55:59.468Z,100144.68
2019-04-10T11:59:04.420Z,100139.98
2019-04-10T12:02:08.824Z,100147.09
2019-04-10T12:08:46.410Z,100147.08
2019-04-10T12:11:26.262Z,100146.09
2019-04-10T12:14:30.218Z,100152.48
2019-04-10T12:17:33.944Z,100152.03
2019-04-10T12:20:37.624Z,100149.28
2019-04-10T12:23:41.682Z,100145.31
2019-04-10T12:26:45.248Z,100144.73
2019-04-10T12:29:48.914Z,100151.11
2019-04-10T12:32:52.795Z,100150.21
2019-04-10T12:36:00.832Z,100140.87
2019-04-10T12:39:07.891Z,100146.71
2019-04-10T12:42:12.265Z,100146.58
2019-04-10T12:45:15.966Z,100146.58
2019-04-10T12:48:22.708Z,100144.07
2019-04-10T12:51:27.703Z,100150.69
2019-04-10T12:54:33.494Z,100146.19
2019-04-10T12:57:37.566Z,100152.45
2019-04-10T13:00:42.841Z,100145.60
2019-04-10T13:03:47.340Z,100150.64
2019-04-10T13:06:52.562Z,100148.31
2019-04-10T13:09:58.155Z,100156.02
2019-04-10T13:13:02.037Z,100147.30
2019-04-10T13:16:05.731Z,100147.39
2019-04-10T13:19:09.409Z,100151.39
2019-04-10T13:22:13.170Z,100153.46
2019-04-10T13:25:16.821Z,100150.52
2019-04-10T13:28:20.473Z,100153.20
2019-04-10T13:31:24.252Z,100147.55
2019-04-10T13:34:29.093Z,100139.51
2019-04-10T13:37:33.763Z,100148.77
2019-04-10T13:40:37.577Z,100143.98
2019-04-10T13:43:42.297Z,100151.18
2019-04-10T13:46:46.153Z,100150.31
2019-04-10T13:49:51.125Z,100147.16
2019-04-10T13:52:55.470Z,100153.56
2019-04-10T13:55:59.262Z,100148.31
2019-04-10T13:59:03.191Z,100150.75
2019-04-10T14:02:08.931Z,100155.96
2019-04-10T14:05:14.288Z,100158.58
2019-04-10T14:08:18.683Z,100156.77
2019-04-10T14:11:22.595Z,100165.08
2019-04-10T14:14:26.743Z,100168.30
2019-04-10T14:17:30.916Z,100168.92
2019-04-10T14:20:35.435Z,100176.59
2019-04-10T14:23:39.588Z,100178.34
2019-04-10T14:26:58.119Z,100182.04
2019-04-10T14:30:03.027Z,100173.27
2019-04-10T14:33:07.201Z,100176.61
2019-04-10T14:36:11.761Z,100173.16
2019-04-10T14:39:19.624Z,100175.67
2019-04-10T14:42:21.108Z,100171.13
2019-04-10T14:45:25.596Z,100175.06
2019-04-10T14:48:32.116Z,100181.05
2019-04-10T14:51:36.680Z,100174.72
2019-04-10T14:54:40.762Z,100183.55
2019-04-10T14:57:45.463Z,100183.55
2019-04-10T15:00:49.725Z,100187.88
2019-04-10T15:03:54.942Z,100193.19
2019-04-10T15:06:58.123Z,100195.30
2019-04-10T15:13:10.070Z,100197.36
2019-04-10T15:16:10.230Z,100199.54
2019-04-10T15:19:13.848Z,100196.13
2019-04-10T15:22:17.831Z,100196.13
2019-04-10T15:25:22.960Z,100196.16
2019-04-10T15:28:28.260Z,100197.54
2019-04-10T15:31:31.959Z,100201.56
2019-04-10T15:34:35.806Z,100197.34
2019-04-10T15:37:39.625Z,100203.52
2019-04-10T15:40:44.092Z,100205.78
2019-04-10T15:43:50.044Z,100206.47
2019-04-10T15:46:53.347Z,100206.17
2019-04-10T15:49:57.722Z,100205.77
2019-04-10T15:53:02.128Z,100217.22
2019-04-10T15:56:06.052Z,100218.62
2019-04-10T15:59:10.185Z,100215.25
2019-04-10T16:02:15.326Z,100226.63
2019-04-10T16:05:19.525Z,100224.91
2019-04-10T16:08:24.197Z,100227.98
2019-04-10T16:11:38.388Z,100232.78
2019-04-10T16:14:42.455Z,100238.46
2019-04-10T16:17:52.216Z,100236.84
2019-04-10T16:20:56.374Z,100239.10
2019-04-10T16:24:07.416Z,100247.47
2019-04-10T16:27:11.856Z,100243.59
2019-04-10T16:30:17.297Z,100242.81
2019-04-10T16:33:21.095Z,100245.52
2019-04-10T16:36:26.321Z,100244.25
2019-04-10T16:39:30.953Z,100254.33
2019-04-10T16:42:34.869Z,100251.69
2019-04-10T16:45:39.032Z,100256.91
2019-04-10T16:48:42.732Z,100256.56
2019-04-10T16:51:46.490Z,100262.23
2019-04-10T16:54:51.364Z,100262.25
2019-04-10T16:57:55.733Z,100259.28
2019-04-10T17:01:00.112Z,100258.91
2019-04-10T17:04:04.889Z,100259.78
2019-04-10T17:07:08.656Z,100265.45
2019-04-10T17:10:19.396Z,100260.67
2019-04-10T17:13:19.323Z,100269.36
2019-04-10T17:16:23.920Z,100270.23
2019-04-10T17:19:28.754Z,100268.55
2019-04-10T17:22:42.282Z,100273.34
2019-04-10T17:25:38.271Z,100281.17
2019-04-10T17:28:42.728Z,100284.31
2019-04-10T17:31:46.773Z,100283.51
2019-04-10T17:34:51.343Z,100284.44
2019-04-10T17:37:56.187Z,100291.00
2019-04-10T17:41:02.176Z,100303.62
2019-04-10T17:44:05.558Z,100301.92
2019-04-10T17:47:09.976Z,100307.56
2019-04-10T17:50:16.243Z,100315.83
2019-04-10T17:53:21.113Z,100313.69
2019-04-10T17:56:26.122Z,100315.02
2019-04-10T17:59:30.303Z,100317.61
2019-04-10T18:02:34.755Z,100322.38
2019-04-10T18:05:39.146Z,100324.13
2019-04-10T18:08:43.214Z,100326.27
2019-04-10T18:11:47.707Z,100330.60
2019-04-10T18:14:51.556Z,100320.22
2019-04-10T18:17:55.604Z,100334.50
2019-04-10T18:21:01.196Z,100334.94
2019-04-10T18:24:04.813Z,100336.65
2019-04-10T18:27:12.910Z,100345.75
2019-04-10T18:30:16.544Z,100344.05
2019-04-10T18:33:20.454Z,100345.75
2019-04-10T18:36:24.370Z,100328.42
2019-04-10T18:39:28.379Z,100325.83
2019-04-10T18:42:32.893Z,100354.00
2019-04-10T18:45:39.387Z,100358.33
2019-04-10T18:48:45.616Z,100350.52
2019-04-10T18:51:48.560Z,100354.86
2019-04-10T18:54:52.445Z,100354.89
2019-04-10T18:57:56.920Z,100351.41
2019-04-10T19:01:18.952Z,100359.66
2019-04-10T19:04:27.365Z,100362.68
2019-04-10T19:07:32.260Z,100361.84
2019-04-10T19:10:36.784Z,100364.43
2019-04-10T19:13:40.815Z,100368.77
2019-04-10T19:16:45.796Z,100364.00
2019-04-10T19:19:50.782Z,100362.69
2019-04-10T19:22:55.030Z,100368.78
2019-04-10T19:25:58.973Z,100368.34
2019-04-10T19:29:03.308Z,100371.36
2019-04-10T19:32:09.922Z,100372.23
2019-04-10T19:35:14.828Z,100373.98
2019-04-10T19:38:19.001Z,100370.95
2019-04-10T19:41:29.667Z,100369.63
2019-04-10T19:44:28.974Z,100372.22
2019-04-10T19:47:32.685Z,100368.77
2019-04-10T19:50:37.320Z,100370.45
2019-04-10T19:53:41.541Z,100372.20
2019-04-10T19:56:45.298Z,100372.61
2019-04-10T19:59:50.035Z,100374.75
2019-04-10T20:02:55.286Z,100375.61
2019-04-10T20:05:58.930Z,100377.75
2019-04-10T20:09:04.193Z,100385.08
2019-04-10T20:12:08.576Z,100388.55
2019-04-10T20:15:12.372Z,100388.97
2019-04-10T20:18:16.770Z,100399.74
2019-04-10T20:21:20.681Z,100399.73
2019-04-10T20:24:25.032Z,100404.89
2019-04-10T20:27:28.848Z,100398.83
2019-04-10T20:30:33.408Z,100396.20
2019-04-10T20:33:37.084Z,100404.84
2019-04-10T20:36:41.624Z,100401.36
2019-04-10T20:39:45.439Z,100405.67
2019-04-10T20:42:50.580Z,100402.21
2019-04-10T20:45:55.856Z,100403.03
2019-04-10T20:49:00.571Z,100412.97
2019-04-10T20:52:04.586Z,100416.40
2019-04-10T20:55:09.107Z,100417.23
2019-04-10T20:58:13.394Z,100418.49
2019-04-10T21:01:20.343Z,100417.58
2019-04-10T21:04:25.442Z,100420.58
2019-04-10T21:07:29.820Z,100418.38
2019-04-10T21:10:33.819Z,100427.02
2019-04-10T21:13:38.420Z,100426.16
2019-04-10T21:16:42.306Z,100426.13
2019-04-10T21:19:46.062Z,100433.02
2019-04-10T21:22:53.442Z,100435.19
2019-04-10T21:25:57.650Z,100423.50
2019-04-10T21:32:43.458Z,100439.03
2019-04-10T21:35:47.716Z,100440.70
2019-04-10T21:38:52.555Z,100434.18
2019-04-10T21:42:08.399Z,100436.79
2019-04-10T21:45:01.950Z,100442.81
2019-04-10T21:48:06.391Z,100437.14
2019-04-10T21:51:10.866Z,100442.33
2019-04-10T21:54:14.874Z,100440.56
2019-04-10T21:57:18.586Z,100431.03
2019-04-10T22:00:24.089Z,100440.10
2019-04-10T22:03:27.913Z,100444.02
2019-04-10T22:06:39.785Z,100443.18
2019-04-10T22:10:01.732Z,100438.47
2019-04-10T22:13:05.907Z,100443.73
2019-04-10T22:16:11.538Z,100436.44
2019-04-10T22:19:16.625Z,100442.58
2019-04-10T22:22:20.576Z,100430.45
2019-04-10T22:25:24.268Z,100446.56
2019-04-10T22:28:28.731Z,100448.74
2019-04-10T22:31:33.067Z,100449.66
2019-04-10T22:34:38.384Z,100444.47
2019-04-10T22:37:42.106Z,100438.86
2019-04-10T22:40:46.246Z,100441.48
2019-04-10T22:43:50.098Z,100450.61
2019-04-10T22:46:54.443Z,100446.29
2019-04-10T22:49:58.148Z,100446.32
2019-04-10T22:53:01.983Z,100454.98
2019-04-10T22:56:06.836Z,100447.20
2019-04-10T22:59:10.865Z,100451.53
2019-04-10T23:02:16.111Z,100449.81
2019-04-10T23:05:20.432Z,100449.79
2019-04-10T23:08:25.331Z,100452.39
2019-04-10T23:11:35.497Z,100455.45
2019-04-10T23:14:34.529Z,100456.79
2019-04-10T23:17:38.994Z,100455.08
2019-04-10T23:20:43.853Z,100455.95
2019-04-10T23:23:47.341Z,100450.77
2019-04-10T23:26:53.347Z,100446.47
2019-04-10T23:29:57.139Z,100449.92
2019-04-10T23:33:02.362Z,100451.23
2019-04-10T23:36:06.027Z,100449.10
2019-04-10T23:39:10.101Z,100438.69
2019-04-10T23:42:14.898Z,100441.72
2019-04-10T23:45:18.062Z,100437.37
2019-04-10T23:48:22.493Z,100438.69
2019-04-10T23:51:27.353Z,100443.00
2019-04-10T23:54:31.200Z,100436.96
2019-04-10T23:57:35.681Z,100446.05
